Vendinga, Russia
Current Conditions -  °F | °C
As of 3:00 PM on Thursday 27 Nov 2014 (Local Time) from UUYY Reporting Station
Light Snow Light Snow  
Wind Chill: -7°   Ceiling: 800
Heat Index: -4°   Visibility: 6mi
Dew Point: -6°   Wind: 4mph
Humidity: 86%   Direction: NA
Pressure: 30.36"   Gusts: NA
Location:  63.45°N, 48°E
Report Text: UUYY 271200Z VRB02MPS 9999 -SN OVC008 M04/M06 Q1028 TEMPO 2000SN 1919//51 RMK QFE762/1016
Loading
Personal Weather Stations






























Interactive Weather Map New forecast layout! Learn more

10-Day Weather Forecast

Advertisements
Track Severe Weather on mobile